Time;durP1;ratioP1;P1;durP2;ratioP2;P2;SDS_P1;SDS_P2;PMS_P1;PMS_P2;Temp;Humidity;BMP_temperature;BMP_pressure;BME280_temperature;BME280_humidity;BME280_pressure;Samples;Min_cycle;Max_cycle;Signal;HPM_P1;HPM_P2
2022/04/26 03:37:19;;;;;;;37.60;27.40;;;9.70;99.90;;;;;;5109482;28;20469;-67
2022/04/26 03:39:46;;;;;;;38.80;28.70;;;9.70;99.90;;;;;;5108269;28;20469;-67
2022/04/26 03:42:13;;;;;;;35.73;27.37;;;9.80;99.90;;;;;;5109575;28;20452;-68
2022/04/26 03:44:40;;;;;;;34.80;27.00;;;9.80;99.90;;;;;;5108254;28;20554;-67
2022/04/26 03:47:07;;;;;;;34.23;26.27;;;9.90;99.90;;;;;;5108546;28;20540;-67
2022/04/26 03:49:36;;;;;;;37.70;27.17;;;9.90;99.90;;;;;;5108527;28;20552;-66
2022/04/26 03:52:03;;;;;;;36.33;28.70;;;9.80;99.90;;;;;;5108836;28;20446;-67
2022/04/26 03:54:30;;;;;;;37.50;29.13;;;9.90;99.90;;;;;;5108978;28;20469;-67
2022/04/26 03:56:58;;;;;;;36.03;28.10;;;9.90;99.90;;;;;;5108991;28;20446;-68
2022/04/26 03:59:24;;;;;;;37.00;29.57;;;9.80;99.90;;;;;;5109445;28;20469;-68
2022/04/26 04:01:51;;;;;;;36.90;27.70;;;9.80;99.90;;;;;;5108945;28;20441;-67
2022/04/26 04:04:18;;;;;;;38.00;28.00;;;9.80;99.90;;;;;;5108103;28;20463;-68
2022/04/26 04:06:46;;;;;;;37.37;29.03;;;9.80;99.90;;;;;;5108828;28;20446;-68
2022/04/26 04:09:13;;;;;;;38.47;29.67;;;9.80;99.90;;;;;;5111364;28;20480;-67
2022/04/26 04:11:40;;;;;;;37.63;27.77;;;9.80;99.90;;;;;;5113425;28;20446;-67
2022/04/26 04:14:07;;;;;;;36.87;27.40;;;9.80;99.90;;;;;;5112694;28;20461;-67
2022/04/26 04:16:33;;;;;;;35.90;25.33;;;9.80;99.90;;;;;;5111999;28;20480;-67
2022/04/26 04:21:46;;;;;;;41.93;29.20;;;9.80;99.90;;;;;;5107139;28;20513;-67
2022/04/26 04:24:13;;;;;;;32.80;26.00;;;9.90;99.90;;;;;;5111648;28;20480;-68
2022/04/26 04:26:39;;;;;;;33.33;25.53;;;9.90;99.90;;;;;;5112442;28;20457;-67
2022/04/26 04:29:08;;;;;;;37.17;27.67;;;9.90;99.90;;;;;;5112870;28;20477;-68
2022/04/26 04:31:35;;;;;;;35.63;26.90;;;9.90;99.90;;;;;;5112640;28;20951;-67
2022/04/26 04:34:02;;;;;;;33.20;25.90;;;10.00;99.90;;;;;;5112725;28;20549;-66
2022/04/26 04:36:29;;;;;;;35.80;26.43;;;10.00;99.90;;;;;;5112337;28;20441;-67
2022/04/26 04:38:57;;;;;;;34.40;26.00;;;10.00;99.90;;;;;;5112169;28;20966;-67
2022/04/26 04:41:25;;;;;;;35.80;26.60;;;10.10;99.90;;;;;;5112243;28;20451;-67
2022/04/26 04:43:52;;;;;;;36.00;26.93;;;10.10;99.90;;;;;;5111684;28;20448;-68
2022/04/26 04:46:18;;;;;;;31.90;25.27;;;10.10;99.90;;;;;;5111724;28;20453;-68
2022/04/26 04:48:46;;;;;;;30.87;25.23;;;10.20;99.90;;;;;;5104098;28;20556;-69
2022/04/26 04:51:12;;;;;;;36.07;26.90;;;10.30;99.90;;;;;;5112071;28;20545;-68
2022/04/26 04:53:39;;;;;;;37.37;28.10;;;10.30;99.90;;;;;;5105847;28;20460;-68
2022/04/26 04:56:10;;;;;;;33.93;26.77;;;10.20;99.90;;;;;;5112020;28;20550;-68
2022/04/26 04:58:38;;;;;;;35.57;27.07;;;10.20;99.90;;;;;;5107040;28;20446;-68
2022/04/26 05:01:04;;;;;;;32.73;25.67;;;10.10;99.90;;;;;;5111977;28;20844;-68
2022/04/26 05:03:31;;;;;;;33.03;26.60;;;10.10;99.90;;;;;;5111412;28;20442;-69
2022/04/26 05:05:58;;;;;;;29.73;24.27;;;10.10;99.90;;;;;;5110489;28;20444;-68
2022/04/26 05:08:25;;;;;;;34.30;26.70;;;10.20;99.90;;;;;;5111191;28;20477;-68
2022/04/26 05:10:52;;;;;;;32.30;25.73;;;10.20;99.90;;;;;;5113264;27;20445;-68
2022/04/26 05:13:21;;;;;;;30.00;24.80;;;10.20;99.90;;;;;;5110905;27;20449;-69
2022/04/26 05:15:48;;;;;;;31.63;25.87;;;10.20;99.90;;;;;;5113048;27;20474;-68
2022/04/26 05:18:15;;;;;;;32.10;25.33;;;10.20;99.90;;;;;;5111521;28;20540;-69
2022/04/26 05:20:43;;;;;;;36.70;25.00;;;10.30;99.90;;;;;;5111358;28;21011;-69
2022/04/26 05:25:54;;;;;;;43.33;27.70;;;10.40;99.90;;;;;;5110319;27;20999;-69
2022/04/26 05:28:22;;;;;;;31.73;25.37;;;10.50;99.90;;;;;;5112847;27;20473;-68
2022/04/26 05:30:51;;;;;;;31.93;25.27;;;10.50;99.90;;;;;;5110895;28;20441;-70
2022/04/26 05:33:18;;;;;;;42.63;28.10;;;10.60;99.90;;;;;;5110820;28;20459;-68
2022/04/26 05:35:44;;;;;;;32.53;25.40;;;10.60;99.90;;;;;;5109718;28;20469;-68
2022/04/26 05:38:11;;;;;;;37.87;25.67;;;10.60;99.90;;;;;;5111642;28;20445;-68
2022/04/26 05:40:38;;;;;;;30.90;25.23;;;10.60;99.90;;;;;;5111597;28;20452;-68
2022/04/26 05:43:05;;;;;;;32.13;26.23;;;10.60;99.90;;;;;;5110298;28;20463;-68
2022/04/26 05:45:33;;;;;;;26.40;23.43;;;10.70;99.90;;;;;;5110610;28;20995;-68
2022/04/26 05:48:00;;;;;;;25.20;21.50;;;10.80;99.90;;;;;;5110185;28;20441;-73
2022/04/26 05:50:27;;;;;;;22.13;19.73;;;10.80;99.90;;;;;;5111201;28;20532;-67
2022/04/26 05:52:54;;;;;;;22.87;19.20;;;10.90;99.90;;;;;;5110115;28;20488;-68
2022/04/26 05:55:21;;;;;;;25.10;19.37;;;10.90;99.90;;;;;;5110031;28;21332;-68
2022/04/26 05:57:48;;;;;;;23.97;19.63;;;10.90;99.90;;;;;;5115362;27;20446;-68
2022/04/26 06:00:16;;;;;;;22.23;18.73;;;10.80;99.90;;;;;;5114223;27;20541;-68
2022/04/26 06:02:44;;;;;;;24.77;21.30;;;10.70;99.90;;;;;;5108960;28;20521;-68
2022/04/26 06:05:11;;;;;;;23.60;20.60;;;10.60;99.90;;;;;;5101827;27;20865;-68
2022/04/26 06:07:37;;;;;;;22.27;19.07;;;10.70;99.90;;;;;;5109772;27;20549;-69
2022/04/26 06:10:06;;;;;;;21.57;19.37;;;10.70;99.90;;;;;;5109309;27;20479;-69
2022/04/26 06:12:33;;;;;;;21.00;18.17;;;10.60;99.90;;;;;;5109680;28;20803;-67
2022/04/26 06:15:01;;;;;;;22.17;18.23;;;10.70;99.90;;;;;;5109891;28;20894;-68
2022/04/26 06:17:28;;;;;;;22.43;19.67;;;10.70;99.90;;;;;;5109515;28;20956;-67
2022/04/26 06:19:56;;;;;;;22.43;20.13;;;10.70;99.90;;;;;;5105683;28;20490;-68
2022/04/26 06:22:23;;;;;;;24.47;20.57;;;10.70;99.90;;;;;;5110416;28;20547;-68
2022/04/26 06:24:51;;;;;;;22.97;18.80;;;10.70;99.90;;;;;;5109255;28;20469;-68
2022/04/26 06:27:18;;;;;;;25.60;20.97;;;10.80;99.90;;;;;;5109125;28;20454;-68
2022/04/26 06:29:45;;;;;;;25.43;21.23;;;10.80;99.90;;;;;;5110062;28;20484;-66
2022/04/26 06:32:12;;;;;;;26.67;22.63;;;10.90;99.90;;;;;;5109055;28;20538;-67
2022/04/26 06:34:39;;;;;;;26.47;22.80;;;10.90;99.90;;;;;;5109836;28;20933;-67
2022/04/26 06:37:07;;;;;;;24.17;20.17;;;10.90;99.90;;;;;;5110155;28;20445;-68
2022/04/26 06:39:34;;;;;;;28.20;21.80;;;10.90;99.90;;;;;;5109612;28;20433;-68
2022/04/26 06:42:01;;;;;;;25.37;20.70;;;10.90;99.90;;;;;;5109894;28;20945;-68
2022/04/26 06:44:28;;;;;;;23.03;20.63;;;10.90;99.90;;;;;;5109608;28;20472;-68
2022/04/26 06:46:54;;;;;;;25.90;20.30;;;10.90;99.90;;;;;;5108862;28;20450;-68
2022/04/26 06:49:21;;;;;;;25.73;22.00;;;10.90;99.90;;;;;;5109660;28;20469;-68
2022/04/26 06:51:48;;;;;;;24.77;21.33;;;10.90;99.90;;;;;;5109794;28;20441;-68
2022/04/26 06:54:16;;;;;;;23.47;19.13;;;10.70;99.90;;;;;;5109775;28;20469;-68
2022/04/26 06:56:45;;;;;;;26.83;21.43;;;10.60;99.90;;;;;;5109272;28;20452;-68
2022/04/26 06:59:12;;;;;;;28.70;23.00;;;10.40;99.90;;;;;;5109373;28;20971;-67
2022/04/26 07:01:39;;;;;;;32.00;25.23;;;10.30;99.90;;;;;;5109724;28;20537;-67
2022/04/26 07:04:06;;;;;;;30.80;25.20;;;10.50;99.90;;;;;;5109173;28;20472;-68
2022/04/26 07:06:33;;;;;;;31.53;24.87;;;10.60;99.90;;;;;;5109559;28;20441;-67
2022/04/26 07:09:01;;;;;;;28.30;23.07;;;10.70;99.90;;;;;;5108696;28;20466;-68
2022/04/26 07:11:29;;;;;;;29.50;24.07;;;10.70;99.90;;;;;;5108182;28;20552;-68
2022/04/26 07:13:57;;;;;;;30.70;23.37;;;10.80;99.90;;;;;;5109947;28;20838;-67
2022/04/26 07:16:24;;;;;;;31.23;24.83;;;10.80;99.90;;;;;;5108983;28;20449;-67
2022/04/26 07:18:51;;;;;;;27.07;23.70;;;10.80;99.90;;;;;;5109769;28;20442;-68
2022/04/26 07:21:18;;;;;;;30.70;25.47;;;10.90;99.90;;;;;;5108327;28;20455;-67
2022/04/26 07:23:45;;;;;;;30.00;25.27;;;10.90;99.90;;;;;;5109167;28;20532;-67
2022/04/26 07:26:11;;;;;;;28.87;24.87;;;10.90;99.90;;;;;;5109082;28;20460;-67
2022/04/26 07:28:40;;;;;;;30.60;25.60;;;11.00;99.90;;;;;;5109785;28;20463;-68
2022/04/26 07:31:08;;;;;;;32.17;26.33;;;11.00;99.90;;;;;;5108602;28;20889;-68
2022/04/26 07:36:22;;;;;;;25.80;21.80;;;11.00;99.90;;;;;;5109037;28;20739;-68
2022/04/26 07:38:49;;;;;;;21.70;19.00;;;11.10;99.90;;;;;;5104766;28;20445;-68
2022/04/26 07:41:16;;;;;;;21.30;18.67;;;11.40;99.90;;;;;;5109667;28;20450;-68
2022/04/26 07:43:45;;;;;;;20.73;17.57;;;11.50;99.90;;;;;;5112942;28;20455;-68
2022/04/26 07:46:14;;;;;;;19.47;17.37;;;11.50;99.90;;;;;;5113458;28;20448;-69
2022/04/26 07:48:43;;;;;;;18.23;16.30;;;11.40;99.90;;;;;;5113529;28;20441;-68
2022/04/26 07:51:10;;;;;;;15.20;13.57;;;11.40;99.90;;;;;;5113661;28;20882;-68
2022/04/26 07:53:38;;;;;;;15.10;13.60;;;11.10;99.90;;;;;;5112954;28;20469;-67
2022/04/26 07:56:05;;;;;;;14.73;13.13;;;11.00;99.90;;;;;;5113134;28;20448;-68
2022/04/26 07:58:33;;;;;;;15.10;13.60;;;10.90;99.90;;;;;;5112877;28;20526;-68
2022/04/26 08:01:01;;;;;;;15.33;12.70;;;10.90;99.90;;;;;;5113113;28;20977;-68
2022/04/26 08:03:28;;;;;;;14.37;12.90;;;10.90;99.90;;;;;;5113550;28;20455;-68
2022/04/26 08:05:55;;;;;;;16.80;14.67;;;11.00;99.90;;;;;;5112963;28;20476;-68
2022/04/26 08:08:22;;;;;;;16.10;13.63;;;11.10;99.90;;;;;;5113324;28;20520;-68
2022/04/26 08:10:49;;;;;;;13.73;12.30;;;11.20;99.90;;;;;;5112876;28;20476;-68
2022/04/26 08:13:16;;;;;;;17.10;14.00;;;11.30;99.90;;;;;;5112839;27;20982;-68
2022/04/26 08:15:43;;;;;;;14.20;12.80;;;11.40;99.90;;;;;;5111752;28;20468;-68
2022/04/26 08:18:11;;;;;;;16.57;14.87;;;11.40;99.90;;;;;;5111205;28;20458;-68
2022/04/26 08:20:38;;;;;;;15.23;13.63;;;11.50;99.90;;;;;;5113119;28;20481;-68
2022/04/26 08:23:06;;;;;;;14.20;12.80;;;11.60;99.90;;;;;;5112193;28;20442;-68
2022/04/26 08:28:18;;;;;;;18.33;13.80;;;11.80;99.90;;;;;;5112858;28;20483;-67
2022/04/26 08:30:45;;;;;;;15.30;13.67;;;11.80;99.90;;;;;;5112709;28;20477;-69
2022/04/26 08:33:13;;;;;;;14.20;12.90;;;11.90;99.90;;;;;;5112561;28;20455;-68
2022/04/26 08:35:40;;;;;;;14.30;12.80;;;12.10;99.90;;;;;;5109892;28;20479;-68
2022/04/26 08:38:07;;;;;;;14.80;13.30;;;12.30;99.90;;;;;;5112433;28;20445;-69
2022/04/26 08:40:33;;;;;;;14.40;12.97;;;12.40;99.90;;;;;;5112846;28;20448;-68
2022/04/26 08:43:02;;;;;;;13.90;12.60;;;12.50;99.90;;;;;;5112194;28;20441;-68
2022/04/26 08:45:29;;;;;;;13.50;12.10;;;12.60;99.90;;;;;;5112749;28;20473;-67
2022/04/26 08:51:02;;;;;;;13.43;12.13;;;12.60;99.90;;;;;;5111762;28;20468;-69
2022/04/26 08:53:30;;;;;;;13.67;12.27;;;12.70;99.90;;;;;;5111113;28;20472;-67
2022/04/26 08:56:01;;;;;;;13.30;11.90;;;13.00;99.90;;;;;;5111421;28;20479;-68
2022/04/26 08:58:31;;;;;;;13.53;11.83;;;13.10;99.90;;;;;;5112652;28;20814;-68
2022/04/26 09:01:10;;;;;;;13.60;12.20;;;13.30;99.90;;;;;;5111819;28;21007;-68
2022/04/26 09:03:39;;;;;;;10.30;9.30;;;13.50;99.90;;;;;;5110605;28;20441;-68
2022/04/26 09:06:11;;;;;;;12.73;10.80;;;13.40;99.90;;;;;;5111142;28;20442;-68
2022/04/26 09:08:39;;;;;;;13.43;11.17;;;13.30;99.90;;;;;;5112203;28;20449;-68
2022/04/26 09:11:20;;;;;;;11.87;10.63;;;13.20;99.90;;;;;;5110898;28;20491;-67
2022/04/26 09:13:47;;;;;;;14.20;11.07;;;13.00;99.90;;;;;;5109503;28;20528;-68
2022/04/26 09:16:19;;;;;;;13.07;9.90;;;12.90;99.90;;;;;;5111723;28;20449;-69
2022/04/26 09:18:54;;;;;;;10.77;9.70;;;12.90;99.90;;;;;;5111713;28;20437;-68
2022/04/26 09:21:27;;;;;;;13.27;11.87;;;12.90;99.90;;;;;;5107468;28;20437;-68
2022/04/26 09:23:56;;;;;;;11.20;9.80;;;12.90;99.90;;;;;;5111608;28;20459;-68
2022/04/26 09:26:22;;;;;;;10.80;9.80;;;12.80;99.90;;;;;;5110453;28;20448;-68
2022/04/26 09:28:51;;;;;;;12.27;11.07;;;12.80;99.90;;;;;;5110886;28;20453;-68
2022/04/26 09:31:20;;;;;;;10.97;9.50;;;12.80;99.90;;;;;;5110948;28;20485;-68
2022/04/26 09:33:49;;;;;;;11.00;9.53;;;12.90;99.90;;;;;;5111235;28;20891;-68
2022/04/26 09:36:17;;;;;;;12.67;11.27;;;13.20;99.90;;;;;;5110781;28;20467;-67
2022/04/26 09:38:52;;;;;;;10.57;9.57;;;13.40;99.90;;;;;;5111073;28;20532;-67
2022/04/26 09:41:20;;;;;;;12.60;10.57;;;13.50;99.90;;;;;;5111514;28;20445;-68
2022/04/26 09:43:57;;;;;;;10.60;8.97;;;13.80;99.90;;;;;;5111661;28;20441;-68
2022/04/26 09:46:24;;;;;;;10.70;9.70;;;14.00;99.90;;;;;;5110147;28;20441;-68
2022/04/26 09:48:53;;;;;;;11.27;8.70;;;14.30;99.90;;;;;;5111579;28;20662;-68
2022/04/26 09:51:20;;;;;;;10.07;9.17;;;14.60;99.90;;;;;;5110824;28;20504;-68
2022/04/26 09:53:47;;;;;;;11.33;9.07;;;14.60;99.90;;;;;;5110666;28;20455;-68
2022/04/26 09:56:16;;;;;;;10.50;9.43;;;14.80;99.90;;;;;;5109957;28;20520;-68
2022/04/26 09:58:44;;;;;;;12.17;10.30;;;15.10;99.90;;;;;;5110899;28;20495;-67
2022/04/26 10:01:14;;;;;;;11.13;9.20;;;15.20;99.90;;;;;;5111237;28;20444;-67
2022/04/26 10:03:43;;;;;;;8.20;7.30;;;15.50;99.90;;;;;;5110976;28;20823;-68
2022/04/26 10:06:16;;;;;;;13.43;8.07;;;15.50;99.90;;;;;;5109049;28;20832;-69
2022/04/26 10:08:43;;;;;;;8.90;7.40;;;15.70;99.90;;;;;;5111404;28;20525;-70
2022/04/26 10:11:10;;;;;;;7.90;7.10;;;16.10;99.90;;;;;;5110956;28;20495;-68
2022/04/26 10:13:40;;;;;;;10.40;8.07;;;16.50;99.90;;;;;;5110176;28;20453;-69
2022/04/26 10:16:08;;;;;;;8.23;6.83;;;16.50;99.90;;;;;;5110173;28;20502;-67
2022/04/26 10:18:39;;;;;;;9.00;7.80;;;16.40;99.90;;;;;;5109770;28;20822;-67
2022/04/26 10:21:08;;;;;;;12.03;7.37;;;16.50;99.90;;;;;;5110860;28;20853;-67
2022/04/26 10:24:08;;;;;;;10.00;7.70;;;16.50;99.90;;;;;;5110569;28;20880;-69
2022/04/26 10:26:35;;;;;;;11.43;8.80;;;16.50;99.90;;;;;;5108943;28;20993;-68
2022/04/26 10:29:13;;;;;;;8.50;7.53;;;16.60;99.90;;;;;;5109950;28;20576;-68
2022/04/26 10:31:42;;;;;;;7.70;6.90;;;16.60;99.90;;;;;;5105400;28;20484;-68
2022/04/26 10:34:34;;;;;;;8.20;7.40;;;16.20;99.90;;;;;;5110442;28;20734;-67
2022/04/26 10:37:26;;;;;;;7.67;5.93;;;15.70;99.90;;;;;;5109736;28;20441;-67
2022/04/26 10:40:00;;;;;;;8.53;6.83;;;15.30;99.90;;;;;;5103651;28;20445;-67
2022/04/26 10:42:29;;;;;;;6.80;6.10;;;14.90;99.90;;;;;;5110294;28;20451;-68
2022/04/26 10:45:07;;;;;;;8.07;7.33;;;14.50;99.90;;;;;;5109403;28;20461;-68
2022/04/26 10:47:35;;;;;;;8.30;7.50;;;14.60;99.90;;;;;;5109260;28;20441;-68
2022/04/26 10:50:03;;;;;;;6.33;5.73;;;15.40;99.90;;;;;;5109531;28;20473;-69
2022/04/26 10:52:42;;;;;;;8.33;6.00;;;16.30;99.90;;;;;;5109756;28;20520;-69
2022/04/26 10:55:14;;;;;;;6.70;5.93;;;16.20;99.90;;;;;;5103082;28;20477;-69
2022/04/26 10:57:44;;;;;;;7.00;5.30;;;16.10;99.90;;;;;;5109561;28;21225;-68
2022/04/26 11:00:15;;;;;;;23.83;7.60;;;16.00;99.90;;;;;;5109819;28;20441;-68
2022/04/26 11:02:43;;;;;;;10.93;5.30;;;15.70;99.90;;;;;;5110334;28;20843;-67
2022/04/26 11:05:11;;;;;;;10.23;7.20;;;15.50;98.90;;;;;;5108247;28;20472;-68
2022/04/26 11:07:40;;;;;;;7.10;4.50;;;16.20;99.90;;;;;;5109164;28;20525;-68
2022/04/26 11:10:08;;;;;;;5.13;4.63;;;17.40;98.20;;;;;;5108747;28;20556;-67
2022/04/26 11:12:36;;;;;;;12.20;8.53;;;18.50;97.00;;;;;;5109623;28;21184;-67
2022/04/26 11:15:06;;;;;;;7.43;6.43;;;18.60;95.90;;;;;;5109121;28;20473;-67
2022/04/26 11:17:34;;;;;;;7.93;7.23;;;17.50;96.80;;;;;;5108885;28;20437;-69
2022/04/26 11:20:03;;;;;;;10.47;9.47;;;16.60;99.10;;;;;;5109176;28;20501;-69
2022/04/26 11:22:30;;;;;;;10.47;9.37;;;15.40;99.90;;;;;;5109596;28;20963;-68
2022/04/26 11:28:03;;;;;;;10.83;8.53;;;13.70;99.90;;;;;;5106468;28;20437;-69
2022/04/26 11:30:32;;;;;;;11.00;8.20;;;13.60;99.90;;;;;;5109253;28;21004;-68
2022/04/26 11:33:01;;;;;;;9.30;8.40;;;14.40;99.90;;;;;;5108053;28;20544;-68
2022/04/26 11:35:28;;;;;;;12.00;8.30;;;15.10;99.90;;;;;;5109560;28;20500;-68
2022/04/26 11:37:57;;;;;;;7.97;7.27;;;15.60;99.90;;;;;;5109357;28;20540;-68
2022/04/26 11:40:26;;;;;;;9.43;8.53;;;15.00;99.90;;;;;;5109567;28;20536;-67
2022/04/26 11:42:54;;;;;;;8.60;7.80;;;14.40;99.90;;;;;;5109025;28;20498;-69
2022/04/26 11:45:21;;;;;;;8.40;7.47;;;14.10;99.90;;;;;;5108579;28;20497;-68
2022/04/26 11:47:50;;;;;;;8.13;7.30;;;14.50;99.90;;;;;;5108903;28;21104;-69
2022/04/26 11:50:21;;;;;;;7.73;7.03;;;15.00;99.90;;;;;;5108765;28;21009;-68
2022/04/26 11:52:49;;;;;;;6.67;6.00;;;15.90;99.90;;;;;;5108952;28;20449;-68
2022/04/26 11:55:24;;;;;;;6.07;5.43;;;16.60;99.90;;;;;;5107686;28;20544;-68
2022/04/26 11:57:52;;;;;;;6.30;5.70;;;16.60;99.90;;;;;;5108160;28;20452;-69
2022/04/26 12:00:21;;;;;;;6.07;5.47;;;16.70;99.90;;;;;;5107202;28;20433;-68
2022/04/26 12:02:49;;;;;;;5.73;4.90;;;17.10;99.90;;;;;;5106775;28;20450;-69
2022/04/26 12:05:20;;;;;;;5.57;5.07;;;17.50;98.80;;;;;;5107906;28;20552;-68
2022/04/26 12:07:49;;;;;;;5.40;4.90;;;17.40;98.90;;;;;;5099753;28;20506;-68
2022/04/26 12:10:30;;;;;;;11.70;10.50;;;17.60;97.70;;;;;;5108489;28;20886;-68
2022/04/26 12:12:58;;;;;;;6.17;5.23;;;17.30;99.10;;;;;;5105194;28;20441;-67
2022/04/26 12:15:26;;;;;;;5.33;4.80;;;16.90;98.40;;;;;;5108995;28;20469;-68
2022/04/26 12:18:08;;;;;;;8.47;5.90;;;17.30;98.60;;;;;;5109178;28;20540;-68
2022/04/26 12:20:37;;;;;;;6.73;6.03;;;17.10;98.40;;;;;;5109115;28;20862;-68
2022/04/26 12:23:06;;;;;;;7.97;6.43;;;17.10;98.50;;;;;;5105802;28;21026;-66
2022/04/26 12:25:35;;;;;;;7.37;6.77;;;16.30;99.20;;;;;;5107845;28;21045;-68
2022/04/26 12:28:07;;;;;;;7.50;6.70;;;15.70;99.90;;;;;;5108526;28;20921;-67
2022/04/26 12:30:37;;;;;;;7.70;7.00;;;15.40;99.90;;;;;;5111913;28;20541;-66
2022/04/26 12:33:05;;;;;;;8.93;7.20;;;16.00;99.90;;;;;;5112029;28;20483;-67
2022/04/26 12:35:32;;;;;;;7.77;7.07;;;16.50;99.90;;;;;;5111633;28;20547;-66
2022/04/26 12:38:08;;;;;;;9.40;8.20;;;16.60;99.90;;;;;;5112187;28;20446;-67
2022/04/26 12:40:35;;;;;;;6.20;5.20;;;16.30;99.90;;;;;;5111335;28;20528;-67
2022/04/26 12:43:03;;;;;;;5.10;4.60;;;15.50;99.90;;;;;;5112960;28;20453;-68
2022/04/26 12:45:30;;;;;;;5.97;4.00;;;14.50;99.90;;;;;;5111903;28;20855;-69
2022/04/26 12:50:52;;;;;;;5.90;3.70;;;13.20;99.90;;;;;;5108834;28;20472;-69
2022/04/26 12:53:25;;;;;;;5.93;4.13;;;12.80;99.90;;;;;;5111269;28;20475;-68
2022/04/26 12:55:53;;;;;;;4.63;3.93;;;12.60;99.90;;;;;;5112446;28;20584;-68
2022/04/26 12:58:35;;;;;;;3.70;3.13;;;12.30;99.90;;;;;;5111907;28;20452;-69
2022/04/26 13:01:03;;;;;;;4.20;3.07;;;12.40;99.90;;;;;;5107711;28;20452;-69
2022/04/26 13:03:31;;;;;;;3.97;3.00;;;13.20;99.90;;;;;;5112363;28;20449;-68
2022/04/26 13:06:08;;;;;;;4.10;2.67;;;13.90;99.90;;;;;;5111684;28;20845;-68
2022/04/26 13:08:37;;;;;;;4.03;1.80;;;14.30;99.90;;;;;;5111523;28;20532;-67
2022/04/26 13:11:05;;;;;;;2.73;2.23;;;14.40;99.90;;;;;;5099900;28;20489;-68
2022/04/26 13:13:33;;;;;;;4.13;2.17;;;14.50;99.90;;;;;;5112048;28;20453;-68
2022/04/26 13:15:59;;;;;;;2.30;1.40;;;14.50;99.90;;;;;;5110303;28;20464;-69
2022/04/26 13:18:27;;;;;;;2.27;1.30;;;14.60;99.90;;;;;;5110592;28;20542;-68
2022/04/26 13:20:54;;;;;;;3.13;1.80;;;14.40;99.90;;;;;;5110886;28;20824;-68
2022/04/26 13:23:22;;;;;;;3.00;1.90;;;14.50;99.90;;;;;;5111794;28;20491;-68
2022/04/26 13:25:50;;;;;;;2.60;1.80;;;14.60;99.90;;;;;;5110488;28;20560;-68
2022/04/26 13:28:17;;;;;;;4.20;2.07;;;14.70;99.90;;;;;;5112125;28;20437;-68
2022/04/26 13:30:44;;;;;;;3.30;1.70;;;15.20;99.90;;;;;;5112176;28;20903;-69
2022/04/26 13:33:12;;;;;;;2.90;1.43;;;16.20;99.90;;;;;;5111558;28;20437;-68
2022/04/26 13:35:39;;;;;;;2.60;1.53;;;17.10;98.50;;;;;;5110840;28;20476;-69
2022/04/26 13:38:10;;;;;;;3.70;1.90;;;17.40;98.70;;;;;;5111243;28;20442;-69
2022/04/26 13:40:38;;;;;;;4.90;2.10;;;17.60;98.10;;;;;;5111333;28;20442;-69
2022/04/26 13:43:08;;;;;;;2.63;1.70;;;18.10;96.80;;;;;;5111819;28;20456;-69
2022/04/26 13:45:35;;;;;;;3.77;2.33;;;18.20;95.80;;;;;;5110726;28;20526;-70
2022/04/26 13:48:08;;;;;;;2.70;2.00;;;18.10;95.70;;;;;;5105957;28;20460;-72
2022/04/26 13:50:35;;;;;;;6.07;2.30;;;18.50;95.70;;;;;;5105420;28;20449;-69
2022/04/26 13:53:02;;;;;;;3.70;2.60;;;18.30;95.10;;;;;;5105961;28;20441;-69
2022/04/26 13:55:30;;;;;;;3.20;2.67;;;18.40;94.60;;;;;;5106527;28;20563;-70
2022/04/26 13:57:56;;;;;;;3.60;2.70;;;18.60;94.20;;;;;;5105761;28;20445;-70
2022/04/26 14:00:25;;;;;;;3.40;2.87;;;18.60;95.10;;;;;;5109383;28;20943;-71
2022/04/26 14:02:52;;;;;;;4.07;3.20;;;18.80;94.60;;;;;;5108733;28;20437;-69
2022/04/26 14:05:20;;;;;;;3.90;2.50;;;19.00;94.80;;;;;;5109096;28;20569;-69
2022/04/26 14:07:47;;;;;;;3.27;2.83;;;19.60;94.90;;;;;;5110271;28;20452;-70
2022/04/26 14:10:15;;;;;;;3.63;2.50;;;19.80;92.90;;;;;;5110810;28;20449;-67
2022/04/26 14:12:42;;;;;;;3.90;3.00;;;19.70;91.60;;;;;;5108790;28;20473;-70
2022/04/26 14:23:27;;;;;;;3.80;3.10;;;17.80;92.90;;;;;;5105703;28;20437;-68
2022/04/26 14:25:54;;;;;;;4.03;3.53;;;17.50;92.70;;;;;;5109894;28;20473;-68
2022/04/26 14:28:21;;;;;;;4.50;3.60;;;17.00;92.70;;;;;;5110820;28;21129;-68
2022/04/26 14:30:47;;;;;;;4.37;3.47;;;16.00;94.70;;;;;;5109802;28;20811;-67
2022/04/26 14:33:17;;;;;;;4.87;3.77;;;15.50;95.60;;;;;;5105793;28;20449;-68
2022/04/26 14:35:44;;;;;;;4.50;3.30;;;15.90;96.20;;;;;;5107107;28;20466;-67
2022/04/26 14:38:11;;;;;;;6.17;4.27;;;15.80;97.50;;;;;;5109406;28;20449;-68
2022/04/26 14:40:38;;;;;;;6.23;4.67;;;15.80;97.80;;;;;;5109131;28;20442;-68
2022/04/26 14:43:07;;;;;;;3.80;3.40;;;15.90;97.10;;;;;;5108571;28;20453;-68
2022/04/26 14:45:42;;;;;;;4.40;3.30;;;15.40;96.50;;;;;;5108068;28;20548;-68
2022/04/26 14:48:10;;;;;;;2.87;2.50;;;14.90;98.20;;;;;;5109047;28;20540;-68
2022/04/26 14:50:39;;;;;;;3.87;2.37;;;14.50;96.50;;;;;;5104856;27;20453;-68
2022/04/26 14:53:06;;;;;;;3.50;2.50;;;14.40;99.00;;;;;;5107908;27;20527;-68
2022/04/26 14:55:33;;;;;;;3.17;2.13;;;15.50;98.90;;;;;;5106326;27;21170;-68
2022/04/26 14:58:00;;;;;;;5.00;2.70;;;16.90;94.30;;;;;;5118474;27;20453;-67
2022/04/26 15:00:27;;;;;;;3.27;2.83;;;17.70;94.70;;;;;;5116798;27;20972;-68
2022/04/26 15:02:54;;;;;;;2.93;2.23;;;18.00;94.90;;;;;;5114758;27;20520;-69
2022/04/26 15:05:23;;;;;;;3.53;2.47;;;18.80;94.70;;;;;;5114097;27;20497;-68
2022/04/26 15:10:35;;;;;;;4.53;2.50;;;19.60;91.00;;;;;;5106114;28;20826;-67
2022/04/26 15:18:30;;;;;;;4.13;2.50;;;19.70;90.50;;;;;;5107385;28;20436;-69
2022/04/26 15:20:57;;;;;;;3.57;2.20;;;17.80;90.90;;;;;;5107831;28;20549;-69
2022/04/26 15:23:26;;;;;;;2.83;2.17;;;16.70;93.70;;;;;;5108525;28;21057;-69
2022/04/26 15:25:55;;;;;;;3.40;2.60;;;15.40;94.70;;;;;;5107787;28;20815;-69
2022/04/26 15:28:23;;;;;;;3.40;2.67;;;14.80;96.70;;;;;;5108527;28;20445;-69
2022/04/26 15:30:50;;;;;;;2.77;2.00;;;14.40;98.50;;;;;;5107317;28;20449;-70
2022/04/26 15:33:17;;;;;;;3.70;3.07;;;14.20;99.50;;;;;;5108402;28;20488;-70
2022/04/26 15:35:45;;;;;;;4.87;3.20;;;14.00;99.90;;;;;;5109183;28;21617;-68
2022/04/26 15:38:12;;;;;;;3.87;3.17;;;13.60;99.90;;;;;;5106003;28;20449;-68
2022/04/26 15:40:41;;;;;;;4.80;4.30;;;13.30;99.90;;;;;;5112120;28;20445;-69
2022/04/26 15:43:08;;;;;;;4.70;3.20;;;13.40;99.90;;;;;;5099492;28;20502;-69
2022/04/26 15:45:36;;;;;;;5.30;3.83;;;13.60;99.90;;;;;;5110596;28;20472;-70
2022/04/26 15:48:03;;;;;;;3.90;3.20;;;13.80;99.90;;;;;;5111402;28;20457;-69
2022/04/26 15:50:30;;;;;;;4.17;3.43;;;14.00;99.90;;;;;;5108607;28;20453;-69
2022/04/26 15:52:56;;;;;;;4.50;3.67;;;14.50;99.90;;;;;;5113118;28;20472;-70
2022/04/26 15:55:24;;;;;;;4.33;3.23;;;14.50;99.90;;;;;;5117048;27;20512;-69
2022/04/26 15:57:53;;;;;;;3.43;3.00;;;14.30;99.90;;;;;;5108246;28;20510;-70
2022/04/26 16:00:20;;;;;;;4.50;3.20;;;15.00;99.90;;;;;;5107672;28;20454;-70
2022/04/26 16:02:47;;;;;;;4.57;3.63;;;16.00;99.90;;;;;;5108516;28;20487;-69
2022/04/26 16:05:15;;;;;;;4.37;2.80;;;16.40;99.30;;;;;;5112012;28;20518;-70
2022/04/26 16:07:42;;;;;;;4.27;3.10;;;15.90;99.20;;;;;;5112880;28;20445;-69
2022/04/26 16:21:08;;;;;;;3.67;2.33;;;13.30;99.90;;;;;;5106661;28;20424;-68
2022/04/26 16:23:35;;;;;;;3.60;2.90;;;12.90;99.90;;;;;;5112195;28;21098;-67
2022/04/26 16:26:03;;;;;;;4.90;3.13;;;12.40;99.90;;;;;;5110050;28;20452;-67
2022/04/26 16:28:32;;;;;;;3.10;2.33;;;12.20;99.90;;;;;;5111703;28;21033;-67
2022/04/26 16:30:59;;;;;;;3.30;2.70;;;12.30;99.90;;;;;;5111751;28;20444;-66
2022/04/26 16:33:26;;;;;;;3.57;2.40;;;12.40;99.90;;;;;;5111712;28;20477;-73
2022/04/26 16:35:54;;;;;;;4.10;3.27;;;12.50;99.90;;;;;;5112699;28;20457;-71
2022/04/26 16:38:21;;;;;;;3.93;3.17;;;12.80;99.90;;;;;;5113013;28;20946;-71
2022/04/26 16:40:48;;;;;;;3.77;2.93;;;13.00;99.90;;;;;;5112415;28;20935;-70
2022/04/26 16:43:16;;;;;;;4.00;2.20;;;13.00;99.90;;;;;;5112173;28;20821;-70
2022/04/26 16:45:44;;;;;;;3.93;2.20;;;13.00;99.90;;;;;;5111496;28;20469;-69
2022/04/26 16:48:11;;;;;;;2.67;2.00;;;12.80;99.90;;;;;;5112627;28;20539;-69
2022/04/26 16:50:38;;;;;;;2.70;2.00;;;12.60;99.90;;;;;;5112448;28;20516;-70
2022/04/26 16:53:05;;;;;;;3.00;2.10;;;12.30;99.90;;;;;;5112264;28;20476;-70
2022/04/26 16:55:33;;;;;;;3.30;2.53;;;12.10;99.90;;;;;;5111535;28;20544;-69
2022/04/26 16:58:01;;;;;;;3.20;2.10;;;11.80;99.90;;;;;;5111875;28;20458;-70
2022/04/26 17:00:29;;;;;;;2.70;1.97;;;11.70;99.90;;;;;;5111607;28;20449;-70
2022/04/26 17:02:58;;;;;;;2.53;1.67;;;11.70;99.90;;;;;;5111782;28;20448;-70
2022/04/26 17:05:27;;;;;;;2.53;1.87;;;11.70;99.90;;;;;;5110492;28;20504;-70
2022/04/26 17:07:55;;;;;;;4.50;2.13;;;11.60;99.90;;;;;;5112575;28;20449;-70